sensor_id;sensor_type;location;lat;lon;timestamp;P1;durP1;ratioP1;P2;durP2;ratioP2
20290;SDS011;10304;51.074;13.754;2023-06-14T00:00:14;4.57;;;2.28;;
20290;SDS011;10304;51.074;13.754;2023-06-14T00:02:42;4.18;;;2.60;;
20290;SDS011;10304;51.074;13.754;2023-06-14T00:05:09;4.93;;;2.58;;
20290;SDS011;10304;51.074;13.754;2023-06-14T00:07:39;2.78;;;2.38;;
20290;SDS011;10304;51.074;13.754;2023-06-14T00:10:13;6.40;;;2.75;;
20290;SDS011;10304;51.074;13.754;2023-06-14T00:12:41;6.30;;;2.58;;
20290;SDS011;10304;51.074;13.754;2023-06-14T00:15:08;3.20;;;2.58;;
20290;SDS011;10304;51.074;13.754;2023-06-14T00:17:37;5.38;;;2.50;;
20290;SDS011;10304;51.074;13.754;2023-06-14T00:20:06;4.20;;;2.75;;
20290;SDS011;10304;51.074;13.754;2023-06-14T00:22:34;4.68;;;2.63;;
20290;SDS011;10304;51.074;13.754;2023-06-14T00:25:03;3.08;;;2.50;;
20290;SDS011;10304;51.074;13.754;2023-06-14T00:27:49;7.35;;;2.47;;
20290;SDS011;10304;51.074;13.754;2023-06-14T00:30:16;2.85;;;2.58;;
20290;SDS011;10304;51.074;13.754;2023-06-14T00:32:44;3.22;;;2.42;;
20290;SDS011;10304;51.074;13.754;2023-06-14T00:35:12;5.47;;;2.38;;
20290;SDS011;10304;51.074;13.754;2023-06-14T00:37:39;4.60;;;2.58;;
20290;SDS011;10304;51.074;13.754;2023-06-14T00:40:06;2.35;;;2.15;;
20290;SDS011;10304;51.074;13.754;2023-06-14T00:42:34;3.95;;;2.50;;
20290;SDS011;10304;51.074;13.754;2023-06-14T00:45:01;5.25;;;2.50;;
20290;SDS011;10304;51.074;13.754;2023-06-14T00:47:28;4.53;;;2.78;;
20290;SDS011;10304;51.074;13.754;2023-06-14T00:49:56;4.13;;;2.67;;
20290;SDS011;10304;51.074;13.754;2023-06-14T00:52:23;5.93;;;2.78;;
20290;SDS011;10304;51.074;13.754;2023-06-14T00:54:51;3.97;;;2.42;;
20290;SDS011;10304;51.074;13.754;2023-06-14T00:57:19;6.72;;;2.97;;
20290;SDS011;10304;51.074;13.754;2023-06-14T00:59:48;3.42;;;2.60;;
20290;SDS011;10304;51.074;13.754;2023-06-14T01:02:16;4.53;;;3.17;;
20290;SDS011;10304;51.074;13.754;2023-06-14T01:04:48;5.75;;;2.90;;
20290;SDS011;10304;51.074;13.754;2023-06-14T01:07:25;4.07;;;2.60;;
20290;SDS011;10304;51.074;13.754;2023-06-14T01:12:57;2.90;;;2.40;;
20290;SDS011;10304;51.074;13.754;2023-06-14T01:15:31;4.72;;;3.08;;
20290;SDS011;10304;51.074;13.754;2023-06-14T01:17:59;4.63;;;3.03;;
20290;SDS011;10304;51.074;13.754;2023-06-14T01:20:30;3.60;;;2.97;;
20290;SDS011;10304;51.074;13.754;2023-06-14T01:22:58;4.38;;;2.92;;
20290;SDS011;10304;51.074;13.754;2023-06-14T01:25:26;4.53;;;3.08;;
20290;SDS011;10304;51.074;13.754;2023-06-14T01:30:29;3.25;;;2.45;;
20290;SDS011;10304;51.074;13.754;2023-06-14T01:32:59;2.95;;;2.63;;
20290;SDS011;10304;51.074;13.754;2023-06-14T01:35:27;4.45;;;2.85;;
20290;SDS011;10304;51.074;13.754;2023-06-14T01:37:54;4.45;;;2.72;;
20290;SDS011;10304;51.074;13.754;2023-06-14T01:40:20;3.42;;;3.08;;
20290;SDS011;10304;51.074;13.754;2023-06-14T01:42:49;4.28;;;2.67;;
20290;SDS011;10304;51.074;13.754;2023-06-14T01:45:17;3.03;;;2.72;;
20290;SDS011;10304;51.074;13.754;2023-06-14T01:47:46;4.88;;;2.88;;
20290;SDS011;10304;51.074;13.754;2023-06-14T01:50:13;5.88;;;3.05;;
20290;SDS011;10304;51.074;13.754;2023-06-14T01:52:41;3.00;;;2.70;;
20290;SDS011;10304;51.074;13.754;2023-06-14T01:55:08;3.65;;;2.80;;
20290;SDS011;10304;51.074;13.754;2023-06-14T01:57:35;3.55;;;2.55;;
20290;SDS011;10304;51.074;13.754;2023-06-14T02:00:03;3.03;;;2.75;;
20290;SDS011;10304;51.074;13.754;2023-06-14T02:02:31;4.72;;;2.95;;
20290;SDS011;10304;51.074;13.754;2023-06-14T02:04:58;3.17;;;2.80;;
20290;SDS011;10304;51.074;13.754;2023-06-14T02:07:24;4.18;;;3.10;;
20290;SDS011;10304;51.074;13.754;2023-06-14T02:09:51;5.22;;;2.88;;
20290;SDS011;10304;51.074;13.754;2023-06-14T02:12:18;6.53;;;2.88;;
20290;SDS011;10304;51.074;13.754;2023-06-14T02:14:45;5.20;;;2.53;;
20290;SDS011;10304;51.074;13.754;2023-06-14T02:17:12;2.83;;;2.45;;
20290;SDS011;10304;51.074;13.754;2023-06-14T02:19:38;3.70;;;2.85;;
20290;SDS011;10304;51.074;13.754;2023-06-14T02:22:05;3.88;;;2.88;;
20290;SDS011;10304;51.074;13.754;2023-06-14T02:24:33;4.18;;;2.80;;
20290;SDS011;10304;51.074;13.754;2023-06-14T02:26:59;7.15;;;2.90;;
20290;SDS011;10304;51.074;13.754;2023-06-14T02:29:27;4.00;;;2.95;;
20290;SDS011;10304;51.074;13.754;2023-06-14T02:31:54;4.35;;;2.78;;
20290;SDS011;10304;51.074;13.754;2023-06-14T02:34:21;3.25;;;2.88;;
20290;SDS011;10304;51.074;13.754;2023-06-14T02:36:48;3.42;;;2.58;;
20290;SDS011;10304;51.074;13.754;2023-06-14T02:39:16;3.00;;;2.70;;
20290;SDS011;10304;51.074;13.754;2023-06-14T02:41:43;3.78;;;2.90;;
20290;SDS011;10304;51.074;13.754;2023-06-14T02:44:10;4.47;;;3.00;;
20290;SDS011;10304;51.074;13.754;2023-06-14T02:46:39;5.05;;;3.05;;
20290;SDS011;10304;51.074;13.754;2023-06-14T02:49:06;4.22;;;3.00;;
20290;SDS011;10304;51.074;13.754;2023-06-14T02:51:33;3.47;;;3.17;;
20290;SDS011;10304;51.074;13.754;2023-06-14T02:53:59;4.07;;;3.20;;
20290;SDS011;10304;51.074;13.754;2023-06-14T02:56:26;5.35;;;3.30;;
20290;SDS011;10304;51.074;13.754;2023-06-14T02:58:54;6.85;;;3.20;;
20290;SDS011;10304;51.074;13.754;2023-06-14T03:01:20;5.80;;;3.40;;
20290;SDS011;10304;51.074;13.754;2023-06-14T03:03:48;5.15;;;2.97;;
20290;SDS011;10304;51.074;13.754;2023-06-14T03:06:15;6.32;;;3.25;;
20290;SDS011;10304;51.074;13.754;2023-06-14T03:08:43;5.20;;;3.50;;
20290;SDS011;10304;51.074;13.754;2023-06-14T03:11:10;5.22;;;3.20;;
20290;SDS011;10304;51.074;13.754;2023-06-14T03:13:37;3.30;;;2.83;;
20290;SDS011;10304;51.074;13.754;2023-06-14T03:16:05;5.43;;;3.80;;
20290;SDS011;10304;51.074;13.754;2023-06-14T03:18:33;5.25;;;3.80;;
20290;SDS011;10304;51.074;13.754;2023-06-14T03:21:02;5.25;;;3.63;;
20290;SDS011;10304;51.074;13.754;2023-06-14T03:23:29;7.40;;;3.80;;
20290;SDS011;10304;51.074;13.754;2023-06-14T03:25:56;5.05;;;3.33;;
20290;SDS011;10304;51.074;13.754;2023-06-14T03:28:23;23.13;;;15.55;;
20290;SDS011;10304;51.074;13.754;2023-06-14T03:30:50;49.10;;;30.42;;
20290;SDS011;10304;51.074;13.754;2023-06-14T03:33:18;12.80;;;8.48;;
20290;SDS011;10304;51.074;13.754;2023-06-14T03:35:45;9.32;;;4.80;;
20290;SDS011;10304;51.074;13.754;2023-06-14T03:38:12;7.15;;;4.07;;
20290;SDS011;10304;51.074;13.754;2023-06-14T03:40:39;5.20;;;4.40;;
20290;SDS011;10304;51.074;13.754;2023-06-14T03:43:06;5.25;;;4.13;;
20290;SDS011;10304;51.074;13.754;2023-06-14T03:45:33;28.52;;;20.42;;
20290;SDS011;10304;51.074;13.754;2023-06-14T03:48:00;18.15;;;13.85;;
20290;SDS011;10304;51.074;13.754;2023-06-14T03:50:27;18.02;;;12.13;;
20290;SDS011;10304;51.074;13.754;2023-06-14T03:52:54;8.63;;;4.75;;
20290;SDS011;10304;51.074;13.754;2023-06-14T03:55:21;9.07;;;3.80;;
20290;SDS011;10304;51.074;13.754;2023-06-14T03:58:08;7.65;;;4.72;;
20290;SDS011;10304;51.074;13.754;2023-06-14T04:00:34;9.43;;;4.15;;
20290;SDS011;10304;51.074;13.754;2023-06-14T04:03:02;5.18;;;4.00;;
20290;SDS011;10304;51.074;13.754;2023-06-14T04:05:30;4.75;;;3.90;;
20290;SDS011;10304;51.074;13.754;2023-06-14T04:07:58;7.60;;;4.45;;
20290;SDS011;10304;51.074;13.754;2023-06-14T04:10:25;85.53;;;54.13;;
20290;SDS011;10304;51.074;13.754;2023-06-14T04:12:51;57.80;;;40.25;;
20290;SDS011;10304;51.074;13.754;2023-06-14T04:15:18;6.57;;;5.05;;
20290;SDS011;10304;51.074;13.754;2023-06-14T04:17:47;5.88;;;4.70;;
20290;SDS011;10304;51.074;13.754;2023-06-14T04:20:14;6.32;;;4.72;;
20290;SDS011;10304;51.074;13.754;2023-06-14T04:22:41;5.38;;;4.00;;
20290;SDS011;10304;51.074;13.754;2023-06-14T04:25:09;6.57;;;5.18;;
20290;SDS011;10304;51.074;13.754;2023-06-14T04:27:38;8.68;;;4.65;;
20290;SDS011;10304;51.074;13.754;2023-06-14T04:30:06;4.47;;;4.07;;
20290;SDS011;10304;51.074;13.754;2023-06-14T04:32:33;4.70;;;4.28;;
20290;SDS011;10304;51.074;13.754;2023-06-14T04:35:06;7.53;;;4.43;;
20290;SDS011;10304;51.074;13.754;2023-06-14T04:37:33;37.38;;;23.98;;
20290;SDS011;10304;51.074;13.754;2023-06-14T04:40:01;61.20;;;40.85;;
20290;SDS011;10304;51.074;13.754;2023-06-14T04:42:31;9.77;;;6.32;;
20290;SDS011;10304;51.074;13.754;2023-06-14T04:44:58;5.43;;;4.78;;
20290;SDS011;10304;51.074;13.754;2023-06-14T04:47:25;6.47;;;4.65;;
20290;SDS011;10304;51.074;13.754;2023-06-14T04:49:58;7.70;;;4.95;;
20290;SDS011;10304;51.074;13.754;2023-06-14T04:52:26;7.82;;;4.80;;
20290;SDS011;10304;51.074;13.754;2023-06-14T04:54:55;19.77;;;12.60;;
20290;SDS011;10304;51.074;13.754;2023-06-14T04:57:22;160.30;;;90.07;;
20290;SDS011;10304;51.074;13.754;2023-06-14T04:59:51;158.73;;;73.22;;
20290;SDS011;10304;51.074;13.754;2023-06-14T05:02:22;18.80;;;8.52;;
20290;SDS011;10304;51.074;13.754;2023-06-14T05:04:50;8.73;;;4.93;;
20290;SDS011;10304;51.074;13.754;2023-06-14T05:07:17;5.25;;;4.50;;
20290;SDS011;10304;51.074;13.754;2023-06-14T05:09:44;13.82;;;6.32;;
20290;SDS011;10304;51.074;13.754;2023-06-14T05:12:11;42.67;;;27.67;;
20290;SDS011;10304;51.074;13.754;2023-06-14T05:14:38;19.23;;;10.93;;
20290;SDS011;10304;51.074;13.754;2023-06-14T05:17:05;8.43;;;5.90;;
20290;SDS011;10304;51.074;13.754;2023-06-14T05:19:32;11.55;;;4.55;;
20290;SDS011;10304;51.074;13.754;2023-06-14T05:21:59;6.32;;;5.03;;
20290;SDS011;10304;51.074;13.754;2023-06-14T05:24:26;6.43;;;5.05;;
20290;SDS011;10304;51.074;13.754;2023-06-14T05:26:55;10.45;;;5.30;;
20290;SDS011;10304;51.074;13.754;2023-06-14T05:29:22;8.93;;;4.95;;
20290;SDS011;10304;51.074;13.754;2023-06-14T05:31:49;114.22;;;69.32;;
20290;SDS011;10304;51.074;13.754;2023-06-14T05:34:17;349.27;;;172.52;;
20290;SDS011;10304;51.074;13.754;2023-06-14T05:36:44;202.63;;;85.25;;
20290;SDS011;10304;51.074;13.754;2023-06-14T05:39:11;371.02;;;149.57;;
20290;SDS011;10304;51.074;13.754;2023-06-14T05:41:38;76.60;;;32.60;;
20290;SDS011;10304;51.074;13.754;2023-06-14T05:44:04;20.55;;;8.43;;
20290;SDS011;10304;51.074;13.754;2023-06-14T05:46:31;10.02;;;5.18;;
20290;SDS011;10304;51.074;13.754;2023-06-14T05:48:58;7.65;;;5.00;;
20290;SDS011;10304;51.074;13.754;2023-06-14T05:51:25;7.50;;;4.75;;
20290;SDS011;10304;51.074;13.754;2023-06-14T05:53:53;7.57;;;4.85;;
20290;SDS011;10304;51.074;13.754;2023-06-14T05:56:20;6.40;;;5.10;;
20290;SDS011;10304;51.074;13.754;2023-06-14T05:58:47;9.45;;;4.97;;
20290;SDS011;10304;51.074;13.754;2023-06-14T06:01:14;7.28;;;4.93;;
20290;SDS011;10304;51.074;13.754;2023-06-14T06:03:41;8.35;;;5.82;;
20290;SDS011;10304;51.074;13.754;2023-06-14T06:06:12;6.82;;;4.63;;
20290;SDS011;10304;51.074;13.754;2023-06-14T06:08:39;86.40;;;47.85;;
20290;SDS011;10304;51.074;13.754;2023-06-14T06:11:07;55.22;;;30.17;;
20290;SDS011;10304;51.074;13.754;2023-06-14T06:13:34;33.53;;;16.50;;
20290;SDS011;10304;51.074;13.754;2023-06-14T06:16:02;65.03;;;27.67;;
20290;SDS011;10304;51.074;13.754;2023-06-14T06:18:29;59.33;;;25.67;;
20290;SDS011;10304;51.074;13.754;2023-06-14T06:20:57;10.63;;;6.35;;
20290;SDS011;10304;51.074;13.754;2023-06-14T06:23:24;10.98;;;7.43;;
20290;SDS011;10304;51.074;13.754;2023-06-14T06:25:51;7.13;;;4.75;;
20290;SDS011;10304;51.074;13.754;2023-06-14T06:28:18;8.48;;;4.90;;
20290;SDS011;10304;51.074;13.754;2023-06-14T06:30:45;8.52;;;5.00;;
20290;SDS011;10304;51.074;13.754;2023-06-14T06:33:12;8.77;;;4.75;;
20290;SDS011;10304;51.074;13.754;2023-06-14T06:35:40;6.97;;;4.72;;
20290;SDS011;10304;51.074;13.754;2023-06-14T06:38:07;7.35;;;4.47;;
20290;SDS011;10304;51.074;13.754;2023-06-14T06:40:36;6.55;;;4.55;;
20290;SDS011;10304;51.074;13.754;2023-06-14T06:43:03;8.63;;;4.50;;
20290;SDS011;10304;51.074;13.754;2023-06-14T06:45:30;9.15;;;4.55;;
20290;SDS011;10304;51.074;13.754;2023-06-14T06:47:58;6.80;;;4.45;;
20290;SDS011;10304;51.074;13.754;2023-06-14T06:50:28;11.27;;;4.25;;
20290;SDS011;10304;51.074;13.754;2023-06-14T06:52:58;5.13;;;4.15;;
20290;SDS011;10304;51.074;13.754;2023-06-14T06:55:28;8.38;;;4.93;;
20290;SDS011;10304;51.074;13.754;2023-06-14T06:57:55;7.18;;;4.55;;
20290;SDS011;10304;51.074;13.754;2023-06-14T07:00:22;6.63;;;4.38;;
20290;SDS011;10304;51.074;13.754;2023-06-14T07:02:52;4.82;;;4.10;;
20290;SDS011;10304;51.074;13.754;2023-06-14T07:05:21;6.70;;;4.35;;
20290;SDS011;10304;51.074;13.754;2023-06-14T07:07:48;6.35;;;4.30;;
20290;SDS011;10304;51.074;13.754;2023-06-14T07:10:16;6.40;;;4.40;;
20290;SDS011;10304;51.074;13.754;2023-06-14T07:12:43;10.00;;;4.68;;
20290;SDS011;10304;51.074;13.754;2023-06-14T07:15:10;6.47;;;4.35;;
20290;SDS011;10304;51.074;13.754;2023-06-14T07:17:37;6.65;;;4.20;;
20290;SDS011;10304;51.074;13.754;2023-06-14T07:20:04;5.20;;;3.83;;
20290;SDS011;10304;51.074;13.754;2023-06-14T07:22:39;5.15;;;4.20;;
20290;SDS011;10304;51.074;13.754;2023-06-14T07:25:08;5.32;;;3.72;;
20290;SDS011;10304;51.074;13.754;2023-06-14T07:27:36;4.85;;;3.92;;
20290;SDS011;10304;51.074;13.754;2023-06-14T07:30:03;4.57;;;3.95;;
20290;SDS011;10304;51.074;13.754;2023-06-14T07:32:30;7.90;;;4.05;;
20290;SDS011;10304;51.074;13.754;2023-06-14T07:34:57;7.47;;;4.00;;
20290;SDS011;10304;51.074;13.754;2023-06-14T07:37:24;6.68;;;3.45;;
20290;SDS011;10304;51.074;13.754;2023-06-14T07:39:51;3.50;;;3.20;;
20290;SDS011;10304;51.074;13.754;2023-06-14T07:42:17;3.80;;;3.22;;
20290;SDS011;10304;51.074;13.754;2023-06-14T07:44:44;3.35;;;3.03;;
20290;SDS011;10304;51.074;13.754;2023-06-14T07:47:11;3.78;;;2.97;;
20290;SDS011;10304;51.074;13.754;2023-06-14T07:49:38;4.50;;;3.45;;
20290;SDS011;10304;51.074;13.754;2023-06-14T07:52:05;6.85;;;2.95;;
20290;SDS011;10304;51.074;13.754;2023-06-14T07:54:33;4.00;;;2.85;;
20290;SDS011;10304;51.074;13.754;2023-06-14T07:57:00;3.45;;;2.75;;
20290;SDS011;10304;51.074;13.754;2023-06-14T07:59:27;4.75;;;2.72;;
20290;SDS011;10304;51.074;13.754;2023-06-14T08:01:54;3.45;;;2.80;;
20290;SDS011;10304;51.074;13.754;2023-06-14T08:04:21;5.68;;;2.70;;
20290;SDS011;10304;51.074;13.754;2023-06-14T08:06:48;4.70;;;2.88;;
20290;SDS011;10304;51.074;13.754;2023-06-14T08:09:18;5.45;;;3.00;;
20290;SDS011;10304;51.074;13.754;2023-06-14T08:11:45;3.33;;;3.00;;
20290;SDS011;10304;51.074;13.754;2023-06-14T08:14:12;6.80;;;3.08;;
20290;SDS011;10304;51.074;13.754;2023-06-14T08:16:39;3.22;;;2.83;;
20290;SDS011;10304;51.074;13.754;2023-06-14T08:19:06;3.40;;;3.08;;
20290;SDS011;10304;51.074;13.754;2023-06-14T08:21:35;4.50;;;2.83;;
20290;SDS011;10304;51.074;13.754;2023-06-14T08:24:02;5.00;;;2.90;;
20290;SDS011;10304;51.074;13.754;2023-06-14T08:26:30;5.22;;;2.55;;
20290;SDS011;10304;51.074;13.754;2023-06-14T08:28:58;2.58;;;2.13;;
20290;SDS011;10304;51.074;13.754;2023-06-14T08:31:24;7.25;;;2.45;;
20290;SDS011;10304;51.074;13.754;2023-06-14T08:33:51;4.28;;;2.05;;
20290;SDS011;10304;51.074;13.754;2023-06-14T08:36:18;3.92;;;2.15;;
20290;SDS011;10304;51.074;13.754;2023-06-14T08:38:50;3.80;;;2.15;;
20290;SDS011;10304;51.074;13.754;2023-06-14T08:41:20;4.55;;;2.17;;
20290;SDS011;10304;51.074;13.754;2023-06-14T08:43:48;4.18;;;2.45;;
20290;SDS011;10304;51.074;13.754;2023-06-14T08:46:50;3.17;;;2.20;;
20290;SDS011;10304;51.074;13.754;2023-06-14T08:49:19;4.63;;;2.47;;
20290;SDS011;10304;51.074;13.754;2023-06-14T08:51:47;5.88;;;2.58;;
20290;SDS011;10304;51.074;13.754;2023-06-14T08:54:19;3.78;;;2.88;;
20290;SDS011;10304;51.074;13.754;2023-06-14T08:56:47;4.03;;;2.15;;
20290;SDS011;10304;51.074;13.754;2023-06-14T08:59:15;3.03;;;2.40;;
20290;SDS011;10304;51.074;13.754;2023-06-14T09:01:42;5.40;;;2.70;;
20290;SDS011;10304;51.074;13.754;2023-06-14T09:04:29;5.65;;;3.42;;
20290;SDS011;10304;51.074;13.754;2023-06-14T09:06:56;3.88;;;3.20;;
20290;SDS011;10304;51.074;13.754;2023-06-14T09:09:31;3.85;;;3.00;;
20290;SDS011;10304;51.074;13.754;2023-06-14T09:12:41;3.75;;;3.10;;
20290;SDS011;10304;51.074;13.754;2023-06-14T09:15:27;4.10;;;3.33;;
20290;SDS011;10304;51.074;13.754;2023-06-14T09:17:56;4.20;;;3.10;;
20290;SDS011;10304;51.074;13.754;2023-06-14T09:20:24;3.35;;;2.83;;
20290;SDS011;10304;51.074;13.754;2023-06-14T09:22:51;3.67;;;3.38;;
20290;SDS011;10304;51.074;13.754;2023-06-14T09:25:22;4.80;;;3.55;;
20290;SDS011;10304;51.074;13.754;2023-06-14T09:28:06;6.10;;;3.40;;
20290;SDS011;10304;51.074;13.754;2023-06-14T09:30:37;4.25;;;3.85;;
20290;SDS011;10304;51.074;13.754;2023-06-14T09:33:05;4.78;;;4.03;;
20290;SDS011;10304;51.074;13.754;2023-06-14T09:35:32;5.10;;;4.18;;
20290;SDS011;10304;51.074;13.754;2023-06-14T09:37:59;5.32;;;4.13;;
20290;SDS011;10304;51.074;13.754;2023-06-14T09:40:31;3.78;;;3.20;;
20290;SDS011;10304;51.074;13.754;2023-06-14T09:43:02;3.80;;;3.50;;
20290;SDS011;10304;51.074;13.754;2023-06-14T09:45:33;3.67;;;3.38;;
20290;SDS011;10304;51.074;13.754;2023-06-14T09:48:00;6.38;;;3.50;;
20290;SDS011;10304;51.074;13.754;2023-06-14T09:50:33;5.43;;;3.50;;
20290;SDS011;10304;51.074;13.754;2023-06-14T09:53:02;5.30;;;3.45;;
20290;SDS011;10304;51.074;13.754;2023-06-14T09:55:34;4.00;;;3.40;;
20290;SDS011;10304;51.074;13.754;2023-06-14T09:58:04;3.15;;;2.88;;
20290;SDS011;10304;51.074;13.754;2023-06-14T10:00:34;6.78;;;3.20;;
20290;SDS011;10304;51.074;13.754;2023-06-14T10:03:24;3.65;;;3.20;;
20290;SDS011;10304;51.074;13.754;2023-06-14T10:05:51;5.38;;;3.15;;
20290;SDS011;10304;51.074;13.754;2023-06-14T10:08:20;3.45;;;3.15;;
20290;SDS011;10304;51.074;13.754;2023-06-14T10:10:53;3.33;;;3.00;;
20290;SDS011;10304;51.074;13.754;2023-06-14T10:13:21;4.50;;;2.90;;
20290;SDS011;10304;51.074;13.754;2023-06-14T10:15:58;3.42;;;2.85;;
20290;SDS011;10304;51.074;13.754;2023-06-14T10:18:35;4.80;;;3.25;;
20290;SDS011;10304;51.074;13.754;2023-06-14T10:21:28;3.00;;;2.80;;
20290;SDS011;10304;51.074;13.754;2023-06-14T10:24:05;4.32;;;3.08;;
20290;SDS011;10304;51.074;13.754;2023-06-14T10:26:34;4.45;;;3.20;;
20290;SDS011;10304;51.074;13.754;2023-06-14T10:29:06;4.60;;;3.50;;
20290;SDS011;10304;51.074;13.754;2023-06-14T10:31:44;4.50;;;3.42;;
20290;SDS011;10304;51.074;13.754;2023-06-14T10:34:12;3.50;;;3.15;;
20290;SDS011;10304;51.074;13.754;2023-06-14T10:36:46;6.00;;;3.75;;
20290;SDS011;10304;51.074;13.754;2023-06-14T10:39:26;3.83;;;2.88;;
20290;SDS011;10304;51.074;13.754;2023-06-14T10:41:54;4.20;;;3.70;;
20290;SDS011;10304;51.074;13.754;2023-06-14T10:46:49;3.50;;;3.20;;
20290;SDS011;10304;51.074;13.754;2023-06-14T10:49:19;3.67;;;3.38;;
20290;SDS011;10304;51.074;13.754;2023-06-14T10:51:49;3.92;;;3.45;;
20290;SDS011;10304;51.074;13.754;2023-06-14T10:54:21;4.50;;;3.35;;
20290;SDS011;10304;51.074;13.754;2023-06-14T10:56:50;5.03;;;3.90;;
20290;SDS011;10304;51.074;13.754;2023-06-14T10:59:19;4.85;;;3.47;;
20290;SDS011;10304;51.074;13.754;2023-06-14T11:12:45;3.95;;;3.53;;
20290;SDS011;10304;51.074;13.754;2023-06-14T11:15:14;4.15;;;3.15;;
20290;SDS011;10304;51.074;13.754;2023-06-14T11:17:51;4.15;;;3.78;;
20290;SDS011;10304;51.074;13.754;2023-06-14T11:20:19;5.28;;;4.20;;
20290;SDS011;10304;51.074;13.754;2023-06-14T11:22:48;5.70;;;4.00;;
20290;SDS011;10304;51.074;13.754;2023-06-14T11:25:15;4.10;;;3.70;;
20290;SDS011;10304;51.074;13.754;2023-06-14T11:27:42;4.20;;;3.42;;
20290;SDS011;10304;51.074;13.754;2023-06-14T11:30:10;4.60;;;4.20;;
20290;SDS011;10304;51.074;13.754;2023-06-14T11:32:37;4.47;;;3.95;;
20290;SDS011;10304;51.074;13.754;2023-06-14T11:35:05;4.18;;;3.33;;
20290;SDS011;10304;51.074;13.754;2023-06-14T11:37:33;5.18;;;3.40;;
20290;SDS011;10304;51.074;13.754;2023-06-14T11:40:00;8.77;;;3.75;;
20290;SDS011;10304;51.074;13.754;2023-06-14T11:42:27;4.25;;;3.35;;
20290;SDS011;10304;51.074;13.754;2023-06-14T11:44:55;4.00;;;3.33;;
20290;SDS011;10304;51.074;13.754;2023-06-14T11:47:35;4.40;;;3.17;;
20290;SDS011;10304;51.074;13.754;2023-06-14T11:50:03;3.67;;;3.38;;
20290;SDS011;10304;51.074;13.754;2023-06-14T11:52:32;3.65;;;3.15;;
20290;SDS011;10304;51.074;13.754;2023-06-14T11:54:59;4.60;;;3.28;;
20290;SDS011;10304;51.074;13.754;2023-06-14T11:57:26;4.72;;;3.17;;
20290;SDS011;10304;51.074;13.754;2023-06-14T11:59:54;4.35;;;3.47;;
20290;SDS011;10304;51.074;13.754;2023-06-14T12:02:21;5.80;;;3.60;;
20290;SDS011;10304;51.074;13.754;2023-06-14T12:04:50;3.35;;;3.05;;
20290;SDS011;10304;51.074;13.754;2023-06-14T12:07:17;4.05;;;3.50;;
20290;SDS011;10304;51.074;13.754;2023-06-14T12:12:25;3.50;;;3.20;;
20290;SDS011;10304;51.074;13.754;2023-06-14T12:14:52;6.32;;;3.60;;
20290;SDS011;10304;51.074;13.754;2023-06-14T12:17:22;4.00;;;3.22;;
20290;SDS011;10304;51.074;13.754;2023-06-14T12:19:49;10.88;;;3.88;;
20290;SDS011;10304;51.074;13.754;2023-06-14T12:22:16;8.15;;;4.10;;
20290;SDS011;10304;51.074;13.754;2023-06-14T12:24:44;6.10;;;3.95;;
20290;SDS011;10304;51.074;13.754;2023-06-14T12:27:12;4.60;;;3.15;;
20290;SDS011;10304;51.074;13.754;2023-06-14T12:29:42;4.75;;;3.92;;
20290;SDS011;10304;51.074;13.754;2023-06-14T12:32:10;5.60;;;4.07;;
20290;SDS011;10304;51.074;13.754;2023-06-14T12:34:37;5.90;;;4.07;;
20290;SDS011;10304;51.074;13.754;2023-06-14T12:37:04;5.00;;;4.50;;
20290;SDS011;10304;51.074;13.754;2023-06-14T12:39:30;4.28;;;3.80;;
20290;SDS011;10304;51.074;13.754;2023-06-14T12:41:57;6.28;;;3.70;;
20290;SDS011;10304;51.074;13.754;2023-06-14T12:44:24;3.90;;;3.60;;
20290;SDS011;10304;51.074;13.754;2023-06-14T12:46:51;4.05;;;3.45;;
20290;SDS011;10304;51.074;13.754;2023-06-14T12:49:21;4.95;;;3.47;;
20290;SDS011;10304;51.074;13.754;2023-06-14T12:51:48;5.78;;;3.97;;
20290;SDS011;10304;51.074;13.754;2023-06-14T12:54:14;4.88;;;3.33;;
20290;SDS011;10304;51.074;13.754;2023-06-14T12:56:53;5.25;;;3.42;;
20290;SDS011;10304;51.074;13.754;2023-06-14T12:59:21;4.88;;;3.30;;
20290;SDS011;10304;51.074;13.754;2023-06-14T13:01:48;4.25;;;3.03;;
20290;SDS011;10304;51.074;13.754;2023-06-14T13:04:16;3.83;;;3.03;;
20290;SDS011;10304;51.074;13.754;2023-06-14T13:06:43;5.45;;;3.28;;
20290;SDS011;10304;51.074;13.754;2023-06-14T13:09:10;3.53;;;3.20;;
20290;SDS011;10304;51.074;13.754;2023-06-14T13:11:37;5.22;;;3.30;;
20290;SDS011;10304;51.074;13.754;2023-06-14T13:14:04;5.88;;;3.47;;
20290;SDS011;10304;51.074;13.754;2023-06-14T13:16:50;6.07;;;3.42;;
20290;SDS011;10304;51.074;13.754;2023-06-14T13:19:17;4.30;;;3.40;;
20290;SDS011;10304;51.074;13.754;2023-06-14T13:21:43;5.53;;;3.55;;
20290;SDS011;10304;51.074;13.754;2023-06-14T13:24:10;8.90;;;3.90;;
20290;SDS011;10304;51.074;13.754;2023-06-14T13:26:37;6.78;;;3.50;;
20290;SDS011;10304;51.074;13.754;2023-06-14T13:29:04;4.65;;;3.55;;
20290;SDS011;10304;51.074;13.754;2023-06-14T13:31:30;6.53;;;3.70;;
20290;SDS011;10304;51.074;13.754;2023-06-14T13:33:57;4.20;;;3.35;;
20290;SDS011;10304;51.074;13.754;2023-06-14T13:36:24;7.50;;;3.50;;
20290;SDS011;10304;51.074;13.754;2023-06-14T13:38:50;4.65;;;3.20;;
20290;SDS011;10304;51.074;13.754;2023-06-14T13:41:19;6.40;;;3.33;;
20290;SDS011;10304;51.074;13.754;2023-06-14T13:43:45;3.90;;;3.33;;
20290;SDS011;10304;51.074;13.754;2023-06-14T13:46:12;4.90;;;2.80;;
20290;SDS011;10304;51.074;13.754;2023-06-14T13:48:39;5.82;;;3.58;;
20290;SDS011;10304;51.074;13.754;2023-06-14T13:51:06;5.60;;;3.22;;
20290;SDS011;10304;51.074;13.754;2023-06-14T13:53:33;6.00;;;3.10;;
20290;SDS011;10304;51.074;13.754;2023-06-14T13:56:00;5.22;;;3.67;;
20290;SDS011;10304;51.074;13.754;2023-06-14T13:58:26;4.65;;;3.22;;
20290;SDS011;10304;51.074;13.754;2023-06-14T14:00:53;5.40;;;3.20;;
20290;SDS011;10304;51.074;13.754;2023-06-14T14:03:20;7.03;;;3.28;;
20290;SDS011;10304;51.074;13.754;2023-06-14T14:05:47;5.63;;;3.42;;
20290;SDS011;10304;51.074;13.754;2023-06-14T14:08:14;3.35;;;3.00;;
20290;SDS011;10304;51.074;13.754;2023-06-14T14:10:41;4.78;;;3.22;;
20290;SDS011;10304;51.074;13.754;2023-06-14T14:13:08;4.82;;;3.20;;
20290;SDS011;10304;51.074;13.754;2023-06-14T14:15:34;6.15;;;3.38;;
20290;SDS011;10304;51.074;13.754;2023-06-14T14:18:01;4.65;;;3.20;;
20290;SDS011;10304;51.074;13.754;2023-06-14T14:20:30;5.03;;;2.92;;
20290;SDS011;10304;51.074;13.754;2023-06-14T14:22:57;4.47;;;2.75;;
20290;SDS011;10304;51.074;13.754;2023-06-14T14:25:24;3.17;;;2.67;;
20290;SDS011;10304;51.074;13.754;2023-06-14T14:27:50;4.35;;;3.20;;
20290;SDS011;10304;51.074;13.754;2023-06-14T14:30:17;7.53;;;3.25;;
20290;SDS011;10304;51.074;13.754;2023-06-14T14:32:46;4.88;;;3.63;;
20290;SDS011;10304;51.074;13.754;2023-06-14T14:35:14;4.13;;;3.00;;
20290;SDS011;10304;51.074;13.754;2023-06-14T14:37:41;3.22;;;2.90;;
20290;SDS011;10304;51.074;13.754;2023-06-14T14:40:08;5.50;;;2.90;;
20290;SDS011;10304;51.074;13.754;2023-06-14T14:42:36;3.75;;;2.85;;
20290;SDS011;10304;51.074;13.754;2023-06-14T14:45:03;5.38;;;2.90;;
20290;SDS011;10304;51.074;13.754;2023-06-14T14:47:30;3.58;;;3.22;;
20290;SDS011;10304;51.074;13.754;2023-06-14T14:49:57;3.50;;;3.20;;
20290;SDS011;10304;51.074;13.754;2023-06-14T14:52:24;5.07;;;3.15;;
20290;SDS011;10304;51.074;13.754;2023-06-14T14:54:52;5.65;;;3.47;;
20290;SDS011;10304;51.074;13.754;2023-06-14T14:57:20;4.15;;;3.22;;
20290;SDS011;10304;51.074;13.754;2023-06-14T14:59:47;4.38;;;3.22;;